Sunday, April 19, 2015, 3:52 AM EDT

KESN, Easton / Newman Field

Location: Easton, MD, United States Lat: 38.8
Local Time: 3:52 AM EDT ( 7:52 GMT) Lon: -76.067
Time Zone: US/Eastern Elev: 72 ft

Show me the last for .
Show Decoded

2015-04-19 03:16 METAR KESN 190725Z AUTO 00000KT 10SM CLR 15/13 A3010 =
2015-04-19 03:16 METAR KESN 190725Z AUTO 00000KT 10SM CLR 15/13 A3010 RMK AO2 T01530131 =
2015-04-19 03:05 METAR KESN 190705Z AUTO 00000KT 10SM CLR 15/13 A3010 =
2015-04-19 03:01 METAR KESN 190705Z AUTO 00000KT 10SM CLR 15/13 A3010 RMK AO2 T01540130 =
2015-04-19 02:19 METAR KESN 190625Z AUTO 06008KT 10SM CLR 17/14 A3010 =
2015-04-19 02:19 METAR KESN 190625Z AUTO 06008KT 10SM CLR 17/14 A3010 RMK AO2 T01650143 =
2015-04-19 02:05 METAR KESN 190605Z AUTO 00000KT 10SM CLR 16/14 A3005 =
2015-04-19 02:04 METAR KESN 190605Z AUTO 00000KT 10SM CLR 16/14 A3005 RMK AO2 T01630142 =
2015-04-19 01:18 METAR KESN 190525Z AUTO 22004KT 10SM CLR 17/15 A3005 =
2015-04-19 01:17 METAR KESN 190525Z AUTO 22004KT 10SM CLR 17/15 A3005 RMK AO2 T01670145 =
2015-04-19 01:05 METAR KESN 190505Z AUTO 24004KT 10SM CLR 17/14 A3005 =
2015-04-19 01:03 METAR KESN 190505Z AUTO 24004KT 10SM CLR 17/14 A3005 RMK AO2 T01670143 =
2015-04-19 00:17 METAR KESN 190425Z AUTO 22004KT 10SM CLR 17/13 A3005 =
2015-04-19 00:16 METAR KESN 190425Z AUTO 22004KT 10SM CLR 17/13 A3005 RMK AO2 T01710131 =
2015-04-19 00:05 METAR KESN 190405Z AUTO 23004KT 10SM CLR 17/12 A3005 =
2015-04-19 00:04 METAR KESN 190405Z AUTO 23004KT 10SM CLR 17/12 A3005 RMK AO2 T01720124 =
2015-04-18 23:17 METAR KESN 190325Z AUTO 18004KT 10SM CLR 18/12 A3004 =
2015-04-18 23:16 METAR KESN 190325Z AUTO 18004KT 10SM CLR 18/12 A3004 RMK AO2 T01790116 =
2015-04-18 23:05 METAR KESN 190305Z AUTO 00000KT 10SM CLR 18/12 A3003 =
2015-04-18 23:01 METAR KESN 190305Z AUTO 00000KT 10SM CLR 18/12 A3003 RMK AO2 T01770115 =
2015-04-18 22:16 METAR KESN 190225Z AUTO 00000KT 10SM CLR 19/12 A3003 =
2015-04-18 22:16 METAR KESN 190225Z AUTO 00000KT 10SM CLR 19/12 A3003 RMK AO2 T01910116 =
2015-04-18 19:55 METAR KESN 182355Z 00000KT 10SM SKC 23/09 A3000 =
2015-04-18 18:50 METAR KESN 182250Z 00000KT 10SM SKC 23/10 A3001 =
2015-04-18 17:55 METAR KESN 182155Z 03005KT 10SM SKC 25/09 A3001 =
2015-04-18 16:50 METAR KESN 182050Z 01005KT 10SM SKC 25/09 A2999 =
2015-04-18 15:55 METAR KESN 181955Z 30005KT 10SM SCT150 25/11 A2999 =
2015-04-18 14:55 METAR KESN 181855Z 28006KT 10SM SCT150 25/13 A3001 =
2015-04-18 13:55 METAR KESN 181755Z 00000KT 10SM SCT150 24/11 A3002 =
2015-04-18 11:55 METAR KESN 181555Z 05009KT 10SM SCT150 23/13 A3006 =
2015-04-18 10:55 METAR KESN 181455Z 05009KT 10SM SCT150 23/14 A3006 =
2015-04-18 08:45 METAR KESN 181245Z 04005KT 10SM SCT150 18/18 A3005 =
2015-04-18 07:50 METAR KESN 181150Z 35004KT 10SM SCT150 MM/MM A3006 =
2015-04-18 06:50 METAR KESN 181050Z 34003KT 7SM SCT150 MM/MM A3003 =
2015-04-18 05:52 METAR KESN 180952Z AUTO 00000KT 1/2SM FG VV005 A3001 RMK AO2 =
2015-04-18 05:50 METAR KESN 180950Z 00000KT 1/4SM FG OVC001 MM/MM A3001 =
2015-04-18 05:41 METAR KESN 180943Z AUTO 00000KT 1/2SM FG BKN001 A3000 =
2015-04-18 05:31 METAR KESN 180943Z AUTO 00000KT 1/2SM FG BKN001 A3000 RMK AO2 =
2015-04-18 05:16 METAR KESN 180923Z AUTO 00000KT 1/4SM FG OVC001 A3000 =
2015-04-18 05:12 METAR KESN 180923Z AUTO 00000KT 1/4SM FG OVC001 A3000 RMK AO2 =
2015-04-18 05:03 METAR KESN 180903Z AUTO 00000KT 1/4SM FG OVC001 A3000 =
2015-04-18 05:01 METAR KESN 180903Z AUTO 00000KT 1/4SM FG OVC001 A3000 RMK AO2 =
2015-04-18 04:41 METAR KESN 180843Z AUTO 00000KT 1/4SM FG OVC001 14/14 A3000 =
2015-04-18 04:31 METAR KESN 180843Z AUTO 00000KT 1/4SM FG OVC001 14/14 A3000 RMK AO2 T01400140 =
2015-04-18 04:16 METAR KESN 180823Z AUTO 00000KT 1/2SM FG SCT001 15/15 A3000 =
2015-04-18 04:13 METAR KESN 180823Z AUTO 00000KT 1/2SM FG SCT001 15/15 A3000 RMK AO2 T01470147 =
2015-04-18 04:03 METAR KESN 180803Z AUTO 00000KT 1/2SM FG VV005 15/15 A3000 RMK AO2 T01520152 =

Support USWX by starting your Amazon purchase here.